createdAt,value
2019-04-26T00:06:37.103Z,13.40
2019-04-26T00:09:27.803Z,13.30
2019-04-26T00:12:23.567Z,13.20
2019-04-26T00:15:12.683Z,13.10
2019-04-26T00:18:01.931Z,13.00
2019-04-26T00:23:03.282Z,12.90
2019-04-26T00:25:35.464Z,13.10
2019-04-26T00:30:36.768Z,12.90
2019-04-26T00:33:07.843Z,12.90
2019-04-26T00:35:47.494Z,13.00
2019-04-26T00:43:16.314Z,13.40
2019-04-26T00:48:19.012Z,13.40
2019-04-26T00:58:25.039Z,13.30
2019-04-26T01:00:56.156Z,13.30
2019-04-26T01:08:30.988Z,13.30
2019-04-26T01:11:01.991Z,13.20
2019-04-26T01:13:33.119Z,13.20
2019-04-26T01:18:36.544Z,13.30
2019-04-26T01:21:09.560Z,13.20
2019-04-26T01:23:42.783Z,13.20
2019-04-26T01:26:23.255Z,13.10
2019-04-26T01:31:30.247Z,13.10
2019-04-26T01:36:33.687Z,13.00
2019-04-26T01:39:19.663Z,13.00
2019-04-26T01:42:01.835Z,13.00
2019-04-26T01:45:03.387Z,13.00
2019-04-26T01:47:34.960Z,12.80
2019-04-26T01:50:07.022Z,12.80
2019-04-26T01:52:38.391Z,12.80
2019-04-26T01:57:41.264Z,12.70
2019-04-26T02:00:33.095Z,12.60
2019-04-26T02:03:12.224Z,12.60
2019-04-26T02:08:17.531Z,12.50
2019-04-26T02:15:49.631Z,12.40
2019-04-26T02:18:20.644Z,12.50
2019-04-26T02:26:43.992Z,12.60
2019-04-26T02:29:19.143Z,12.50
2019-04-26T02:31:57.584Z,12.40
2019-04-26T02:34:33.175Z,12.30
2019-04-26T02:37:06.558Z,12.30
2019-04-26T02:39:41.088Z,12.10
2019-04-26T02:45:07.613Z,12.10
2019-04-26T02:47:57.504Z,12.00
2019-04-26T02:53:22.920Z,11.90
2019-04-26T02:56:28.171Z,11.90
2019-04-26T02:59:40.832Z,11.80
2019-04-26T03:02:26.692Z,11.70
2019-04-26T03:05:01.734Z,11.70
2019-04-26T03:07:55.372Z,11.60
2019-04-26T03:10:36.181Z,11.50
2019-04-26T03:13:11.929Z,11.40
2019-04-26T03:16:15.828Z,11.40
2019-04-26T03:24:23.471Z,11.10
2019-04-26T03:27:39.222Z,11.10
2019-04-26T03:30:51.082Z,11.20
2019-04-26T03:34:22.826Z,11.30
2019-04-26T03:37:21.797Z,11.40
2019-04-26T03:40:06.316Z,11.50
2019-04-26T03:43:02.496Z,11.50
2019-04-26T03:46:03.890Z,11.50
2019-04-26T03:48:58.813Z,11.40
2019-04-26T03:51:44.948Z,11.50
2019-04-26T03:54:20.347Z,11.60
2019-04-26T03:57:13.048Z,11.80
2019-04-26T04:00:02.991Z,11.90
2019-04-26T04:02:57.824Z,12.20
2019-04-26T04:05:37.912Z,12.50
2019-04-26T04:08:13.443Z,12.60
2019-04-26T04:10:53.969Z,12.70
2019-04-26T04:13:50.480Z,12.70
2019-04-26T04:16:34.505Z,12.80
2019-04-26T04:27:52.661Z,13.10
2019-04-26T04:31:04.018Z,13.30
2019-04-26T04:34:09.695Z,13.50
2019-04-26T04:39:27.084Z,13.90
2019-04-26T04:42:22.192Z,14.10
2019-04-26T04:48:29.294Z,14.80
2019-04-26T04:51:28.213Z,15.30
2019-04-26T04:54:22.511Z,15.70
2019-04-26T04:57:10.304Z,16.00
2019-04-26T04:59:51.017Z,16.40
2019-04-26T05:02:46.593Z,16.70
2019-04-26T05:05:49.044Z,17.20
2019-04-26T05:08:34.600Z,17.50
2019-04-26T05:11:16.234Z,17.70
2019-04-26T05:14:10.999Z,17.90
2019-04-26T05:17:22.755Z,18.10
2019-04-26T05:20:26.651Z,17.90
2019-04-26T05:24:00.520Z,18.00
2019-04-26T05:27:17.979Z,17.90
2019-04-26T05:30:38.861Z,18.00
2019-04-26T05:34:11.417Z,18.00
2019-04-26T05:37:25.449Z,18.10
2019-04-26T05:40:15.967Z,18.10
2019-04-26T05:43:24.775Z,18.10
2019-04-26T05:46:23.331Z,18.40
2019-04-26T05:49:37.142Z,18.60
2019-04-26T05:52:42.312Z,18.70
2019-04-26T05:55:45.387Z,18.60
2019-04-26T05:58:40.165Z,18.30
2019-04-26T06:02:15.779Z,18.10
2019-04-26T06:05:20.021Z,18.00
2019-04-26T06:08:30.795Z,17.80
2019-04-26T06:11:09.747Z,17.80
2019-04-26T06:17:28.253Z,17.70
2019-04-26T06:20:25.383Z,17.60
2019-04-26T06:23:07.239Z,17.60
2019-04-26T06:25:49.659Z,17.60
2019-04-26T06:28:50.839Z,17.60
2019-04-26T06:31:33.427Z,17.60
2019-04-26T06:34:25.216Z,17.80
2019-04-26T06:37:17.111Z,18.10
2019-04-26T06:40:03.171Z,18.20
2019-04-26T06:43:26.555Z,18.60
2019-04-26T06:49:46.157Z,20.20
2019-04-26T06:52:21.128Z,21.50
2019-04-26T06:55:24.240Z,22.30
2019-04-26T06:58:14.323Z,22.70
2019-04-26T07:09:12.084Z,24.80
2019-04-26T07:12:45.659Z,25.10
2019-04-26T07:21:23.426Z,26.40
2019-04-26T07:24:56.816Z,27.30
2019-04-26T07:28:03.845Z,26.70
2019-04-26T07:33:33.743Z,25.50
2019-04-26T07:36:58.740Z,25.20
2019-04-26T07:40:39.065Z,24.50
2019-04-26T07:43:52.847Z,24.50
2019-04-26T07:50:16.744Z,24.50
2019-04-26T07:55:57.571Z,25.00
2019-04-26T07:59:18.256Z,26.70
2019-04-26T08:02:18.356Z,28.80
2019-04-26T08:04:58.022Z,29.60
2019-04-26T08:07:33.771Z,30.30
2019-04-26T08:10:14.671Z,30.80
2019-04-26T08:12:55.263Z,31.80
2019-04-26T08:15:49.600Z,32.90
2019-04-26T08:18:32.112Z,33.30
2019-04-26T08:23:57.796Z,33.90
2019-04-26T08:26:32.689Z,33.90
2019-04-26T08:29:06.892Z,33.90
2019-04-26T08:31:41.448Z,34.00
2019-04-26T08:34:20.660Z,32.20
2019-04-26T08:37:01.938Z,32.60
2019-04-26T08:39:44.909Z,33.90
2019-04-26T08:42:18.086Z,32.80
2019-04-26T08:48:02.167Z,33.40
2019-04-26T08:53:12.670Z,36.20
2019-04-26T08:55:46.960Z,34.90
2019-04-26T08:58:21.772Z,34.50
2019-04-26T09:01:15.560Z,34.50
2019-04-26T09:04:12.083Z,34.30
2019-04-26T09:07:05.227Z,34.90
2019-04-26T09:09:39.651Z,35.20
2019-04-26T09:14:49.851Z,34.10
2019-04-26T09:17:21.359Z,34.90
2019-04-26T09:19:53.167Z,34.40
2019-04-26T09:22:36.355Z,34.70
2019-04-26T09:25:14.267Z,35.20
2019-04-26T09:28:11.308Z,35.70
2019-04-26T09:31:00.395Z,37.00
2019-04-26T09:33:44.731Z,37.00
2019-04-26T09:36:18.138Z,35.30
2019-04-26T09:41:21.255Z,33.40
2019-04-26T09:44:00.867Z,33.90
2019-04-26T09:46:52.932Z,34.70
2019-04-26T09:49:29.069Z,36.40
2019-04-26T09:52:00.991Z,36.90
2019-04-26T09:54:32.847Z,36.00
2019-04-26T09:57:04.691Z,36.50
2019-04-26T09:59:36.432Z,34.00
2019-04-26T10:02:10.128Z,34.90
2019-04-26T10:04:42.030Z,35.90
2019-04-26T10:07:13.535Z,36.90
2019-04-26T10:12:31.035Z,34.50
2019-04-26T10:15:26.765Z,34.80
2019-04-26T10:17:57.987Z,35.20
2019-04-26T10:20:29.513Z,36.20
2019-04-26T10:28:18.336Z,37.30
2019-04-26T10:30:50.255Z,39.10
2019-04-26T10:33:21.731Z,39.80
2019-04-26T10:35:56.625Z,39.30
2019-04-26T10:38:26.471Z,38.90
2019-04-26T10:43:29.628Z,38.60
2019-04-26T10:46:01.155Z,37.20
2019-04-26T10:48:32.680Z,36.90
2019-04-26T10:54:10.346Z,37.20
2019-04-26T10:59:34.971Z,37.50
2019-04-26T11:04:41.397Z,36.50
2019-04-26T11:07:10.887Z,38.60
2019-04-26T11:09:42.499Z,40.10
2019-04-26T11:12:15.927Z,40.90
2019-04-26T11:14:47.445Z,41.50
2019-04-26T11:17:18.869Z,41.20
2019-04-26T11:19:50.515Z,40.60
2019-04-26T11:22:28.882Z,40.40
2019-04-26T11:24:55.375Z,39.40
2019-04-26T11:27:26.839Z,40.80
2019-04-26T11:30:00.007Z,43.70
2019-04-26T11:32:33.121Z,42.60
2019-04-26T11:35:04.643Z,41.20
2019-04-26T11:37:36.143Z,42.10
2019-04-26T11:40:10.257Z,43.10
2019-04-26T11:42:41.902Z,42.50
2019-04-26T11:45:16.043Z,41.80
2019-04-26T11:47:55.787Z,41.00
2019-04-26T11:50:21.043Z,39.50
2019-04-26T11:52:52.639Z,37.40
2019-04-26T11:55:25.352Z,37.60
2019-04-26T11:57:57.171Z,37.90
2019-04-26T12:00:33.655Z,38.10
2019-04-26T12:03:05.267Z,40.30
2019-04-26T12:05:52.125Z,40.10
2019-04-26T12:08:33.679Z,40.70
2019-04-26T12:11:17.625Z,40.50
2019-04-26T12:16:09.909Z,40.90
2019-04-26T12:18:44.207Z,41.70
2019-04-26T12:21:14.615Z,41.40
2019-04-26T12:28:49.379Z,43.70
2019-04-26T12:31:20.839Z,43.30
2019-04-26T12:36:22.907Z,47.30
2019-04-26T12:38:58.015Z,48.90
2019-04-26T12:41:39.780Z,47.90
2019-04-26T12:44:03.347Z,49.20
2019-04-26T12:46:42.723Z,47.10
2019-04-26T12:49:14.204Z,45.30
2019-04-26T12:51:47.305Z,45.20
2019-04-26T12:54:19.241Z,45.30
2019-04-26T12:56:50.719Z,46.20
2019-04-26T12:59:25.992Z,47.90
2019-04-26T13:02:05.536Z,45.70
2019-04-26T13:04:36.009Z,44.70
2019-04-26T13:07:22.759Z,44.00
2019-04-26T13:10:01.071Z,46.30
2019-04-26T13:15:51.817Z,44.10
2019-04-26T13:18:23.669Z,43.10
2019-04-26T13:20:58.500Z,42.90
2019-04-26T13:23:29.836Z,43.10
2019-04-26T13:26:02.292Z,42.40
2019-04-26T13:28:33.848Z,42.70
2019-04-26T13:33:35.940Z,41.90
2019-04-26T13:36:07.515Z,41.30
2019-04-26T13:38:39.410Z,40.40
2019-04-26T13:41:12.368Z,40.80
2019-04-26T13:46:44.172Z,43.30
2019-04-26T13:49:38.639Z,43.90
2019-04-26T13:52:10.059Z,44.80
2019-04-26T13:54:41.611Z,46.90
2019-04-26T13:57:13.067Z,48.90
2019-04-26T14:02:16.579Z,48.90
2019-04-26T14:04:48.044Z,48.50
2019-04-26T14:07:20.189Z,47.90
2019-04-26T14:09:52.612Z,48.50
2019-04-26T14:12:25.150Z,46.70
2019-04-26T14:14:56.743Z,47.80
2019-04-26T14:17:29.779Z,46.50
2019-04-26T14:20:01.259Z,45.90
2019-04-26T14:22:40.896Z,43.90
2019-04-26T14:25:14.368Z,44.20
2019-04-26T14:27:51.562Z,42.80
2019-04-26T14:30:23.151Z,41.60
2019-04-26T14:32:57.385Z,42.80
2019-04-26T14:37:57.996Z,43.80
2019-04-26T14:40:29.482Z,42.00
2019-04-26T14:45:36.388Z,38.10
2019-04-26T14:48:06.267Z,37.80
2019-04-26T14:50:37.953Z,38.40
2019-04-26T14:55:39.931Z,36.80
2019-04-26T14:58:12.273Z,36.90
2019-04-26T15:00:46.183Z,38.20
2019-04-26T15:03:26.928Z,39.20
2019-04-26T15:06:12.861Z,38.70
2019-04-26T15:08:47.495Z,38.40
2019-04-26T15:11:17.837Z,39.40
2019-04-26T15:13:49.260Z,40.70
2019-04-26T15:16:22.762Z,42.40
2019-04-26T15:21:27.430Z,44.20
2019-04-26T15:23:59.309Z,44.20
2019-04-26T15:26:30.507Z,44.80
2019-04-26T15:29:02.531Z,43.50
2019-04-26T15:31:35.156Z,42.10
2019-04-26T15:34:07.131Z,40.70
2019-04-26T15:36:38.559Z,38.30
2019-04-26T15:39:26.871Z,35.80
2019-04-26T15:42:16.571Z,33.20
2019-04-26T15:44:57.558Z,31.50
2019-04-26T15:47:42.219Z,30.00
2019-04-26T15:50:22.083Z,29.50
2019-04-26T15:52:54.031Z,29.10
2019-04-26T15:55:25.891Z,29.00
2019-04-26T15:57:57.699Z,28.70
2019-04-26T16:00:32.736Z,28.50
2019-04-26T16:03:06.359Z,28.40
2019-04-26T16:05:36.203Z,28.30
2019-04-26T16:08:08.099Z,28.20
2019-04-26T16:13:20.926Z,27.70
2019-04-26T16:18:17.356Z,27.40
2019-04-26T16:20:53.183Z,27.30
2019-04-26T16:23:24.859Z,27.00
2019-04-26T16:25:56.527Z,26.70
2019-04-26T16:28:38.294Z,26.40
2019-04-26T16:31:18.446Z,26.20
2019-04-26T16:33:52.113Z,26.00
2019-04-26T16:36:24.168Z,25.90
2019-04-26T16:38:57.944Z,25.80
2019-04-26T16:46:34.371Z,25.30
2019-04-26T16:49:11.436Z,25.00
2019-04-26T16:54:16.334Z,24.70
2019-04-26T16:56:44.056Z,24.60
2019-04-26T16:59:22.690Z,24.60
2019-04-26T17:01:49.109Z,24.60
2019-04-26T17:09:29.627Z,24.40
2019-04-26T17:11:58.084Z,24.30
2019-04-26T17:14:29.887Z,24.20
2019-04-26T17:17:03.218Z,24.00
2019-04-26T17:19:37.497Z,24.00
2019-04-26T17:22:40.027Z,23.80
2019-04-26T17:25:32.097Z,23.70
2019-04-26T17:28:04.161Z,23.60
2019-04-26T17:30:41.078Z,23.50
2019-04-26T17:35:41.223Z,23.30
2019-04-26T17:38:13.745Z,23.10
2019-04-26T17:40:46.276Z,23.00
2019-04-26T17:45:51.520Z,22.40
2019-04-26T17:48:23.339Z,22.20
2019-04-26T17:50:54.543Z,21.90
2019-04-26T18:01:03.748Z,21.60
2019-04-26T18:03:35.182Z,21.60
2019-04-26T18:06:09.608Z,21.50
2019-04-26T18:08:46.027Z,21.50
2019-04-26T18:11:18.884Z,21.30
2019-04-26T18:13:47.258Z,21.10
2019-04-26T18:16:21.413Z,21.00
2019-04-26T18:19:09.836Z,20.80
2019-04-26T18:22:03.866Z,20.60
2019-04-26T18:24:35.791Z,20.60
2019-04-26T18:27:06.918Z,20.60
2019-04-26T18:29:37.991Z,20.40
2019-04-26T18:34:40.621Z,20.30
2019-04-26T18:37:13.291Z,20.30
2019-04-26T18:39:44.483Z,20.20
2019-04-26T18:42:16.171Z,20.30
2019-04-26T18:44:48.819Z,20.30
2019-04-26T18:49:59.431Z,20.40
2019-04-26T18:52:34.288Z,20.50
2019-04-26T18:55:26.211Z,20.50
2019-04-26T18:57:59.484Z,20.80
2019-04-26T19:00:38.222Z,20.80
2019-04-26T19:03:09.302Z,20.90
2019-04-26T19:08:12.632Z,20.20
2019-04-26T19:10:43.645Z,19.90
2019-04-26T19:13:38.350Z,19.70
2019-04-26T19:16:46.371Z,19.60
2019-04-26T19:19:44.415Z,19.50
2019-04-26T19:22:35.508Z,19.40
2019-04-26T19:25:19.042Z,19.20
2019-04-26T19:27:49.388Z,19.10
2019-04-26T19:30:14.645Z,19.10
2019-04-26T19:32:45.837Z,19.10
2019-04-26T19:37:48.913Z,18.80
2019-04-26T19:42:55.417Z,18.40
2019-04-26T19:45:47.127Z,18.30
2019-04-26T19:48:36.869Z,18.10
2019-04-26T19:51:34.719Z,18.10
2019-04-26T19:54:16.556Z,17.90
2019-04-26T19:56:56.637Z,17.80
2019-04-26T19:59:33.032Z,17.80
2019-04-26T20:02:01.551Z,17.90
2019-04-26T20:04:34.251Z,17.80
2019-04-26T20:07:06.000Z,17.70
2019-04-26T20:09:37.655Z,17.70
2019-04-26T20:12:08.866Z,17.70
2019-04-26T20:14:49.166Z,17.60
2019-04-26T20:17:19.791Z,17.60
2019-04-26T20:19:47.922Z,17.50
2019-04-26T20:22:28.123Z,17.40
2019-04-26T20:24:57.446Z,17.50
2019-04-26T20:32:44.072Z,17.30
2019-04-26T20:35:19.603Z,17.30
2019-04-26T20:42:57.275Z,16.90
2019-04-26T20:45:38.401Z,16.90
2019-04-26T20:50:35.267Z,16.90
2019-04-26T20:53:02.534Z,16.90
2019-04-26T20:55:35.464Z,16.90
2019-04-26T21:00:39.339Z,16.90
2019-04-26T21:08:15.063Z,16.90
2019-04-26T21:10:46.247Z,16.90
2019-04-26T21:13:17.507Z,17.00
2019-04-26T21:15:57.973Z,17.00
2019-04-26T21:18:33.504Z,17.00
2019-04-26T21:21:05.966Z,17.00
2019-04-26T21:23:39.793Z,16.90
2019-04-26T21:29:39.367Z,16.60
2019-04-26T21:32:41.627Z,16.60
2019-04-26T21:35:15.474Z,16.60
2019-04-26T21:40:28.568Z,16.60
2019-04-26T21:45:33.890Z,16.50
2019-04-26T21:48:06.946Z,16.40
2019-04-26T21:53:10.220Z,16.30
2019-04-26T21:55:41.403Z,16.10
2019-04-26T21:58:14.174Z,15.90
2019-04-26T22:01:05.891Z,15.70
2019-04-26T22:03:37.443Z,15.60
2019-04-26T22:06:08.944Z,15.70
2019-04-26T22:08:49.840Z,15.80
2019-04-26T22:11:21.071Z,15.80
2019-04-26T22:14:05.894Z,15.80
2019-04-26T22:16:53.379Z,15.70
2019-04-26T22:19:59.871Z,15.80
2019-04-26T22:23:05.274Z,15.80
2019-04-26T22:25:38.463Z,15.80
2019-04-26T22:30:39.759Z,15.60
2019-04-26T22:33:10.752Z,15.60
2019-04-26T22:35:43.190Z,15.70
2019-04-26T22:40:48.569Z,15.60
2019-04-26T22:43:44.034Z,15.70
2019-04-26T22:46:44.412Z,15.70
2019-04-26T22:49:06.040Z,15.70
2019-04-26T22:51:37.315Z,15.70
2019-04-26T22:54:08.441Z,15.70
2019-04-26T22:56:39.491Z,15.80
2019-04-26T22:59:10.755Z,15.80
2019-04-26T23:01:44.603Z,15.90
2019-04-26T23:04:22.676Z,16.10
2019-04-26T23:06:49.191Z,16.20
2019-04-26T23:09:20.811Z,16.10
2019-04-26T23:12:03.661Z,16.10
2019-04-26T23:14:59.491Z,15.90
2019-04-26T23:17:44.507Z,15.70
2019-04-26T23:20:20.056Z,15.70
2019-04-26T23:22:52.859Z,15.70
2019-04-26T23:27:58.193Z,15.60
2019-04-26T23:30:31.513Z,15.60
2019-04-26T23:35:37.511Z,15.50
2019-04-26T23:38:05.439Z,15.40
2019-04-26T23:40:36.647Z,15.30
2019-04-26T23:43:07.859Z,15.20
2019-04-26T23:45:47.108Z,15.30
2019-04-26T23:48:12.420Z,15.40
2019-04-26T23:50:44.648Z,15.40
2019-04-26T23:55:46.079Z,15.60
